sensor_id;sensor_type;location;lat;lon;timestamp;P1;durP1;ratioP1;P2;durP2;ratioP2
6547;SDS011;3307;52.416;16.862;2023-05-16T00:01:39;9.77;;;7.80;;
6547;SDS011;3307;52.416;16.862;2023-05-16T00:04:05;9.87;;;7.47;;
6547;SDS011;3307;52.416;16.862;2023-05-16T00:06:31;11.43;;;7.47;;
6547;SDS011;3307;52.416;16.862;2023-05-16T00:08:57;10.33;;;7.93;;
6547;SDS011;3307;52.416;16.862;2023-05-16T00:11:23;11.20;;;8.20;;
6547;SDS011;3307;52.416;16.862;2023-05-16T00:13:49;13.17;;;7.80;;
6547;SDS011;3307;52.416;16.862;2023-05-16T00:16:15;10.20;;;7.78;;
6547;SDS011;3307;52.416;16.862;2023-05-16T00:18:41;8.30;;;6.87;;
6547;SDS011;3307;52.416;16.862;2023-05-16T00:21:09;12.13;;;8.23;;
6547;SDS011;3307;52.416;16.862;2023-05-16T00:23:35;10.17;;;7.90;;
6547;SDS011;3307;52.416;16.862;2023-05-16T00:26:00;11.03;;;8.80;;
6547;SDS011;3307;52.416;16.862;2023-05-16T00:28:25;9.87;;;6.60;;
6547;SDS011;3307;52.416;16.862;2023-05-16T00:30:51;8.70;;;7.00;;
6547;SDS011;3307;52.416;16.862;2023-05-16T00:33:16;10.37;;;7.70;;
6547;SDS011;3307;52.416;16.862;2023-05-16T00:35:42;9.37;;;6.97;;
6547;SDS011;3307;52.416;16.862;2023-05-16T00:38:07;9.70;;;7.37;;
6547;SDS011;3307;52.416;16.862;2023-05-16T00:40:32;9.33;;;7.43;;
6547;SDS011;3307;52.416;16.862;2023-05-16T00:42:58;8.50;;;7.07;;
6547;SDS011;3307;52.416;16.862;2023-05-16T00:45:23;9.90;;;7.23;;
6547;SDS011;3307;52.416;16.862;2023-05-16T00:47:49;8.43;;;6.47;;
6547;SDS011;3307;52.416;16.862;2023-05-16T00:50:15;9.57;;;7.15;;
6547;SDS011;3307;52.416;16.862;2023-05-16T00:52:41;10.95;;;7.70;;
6547;SDS011;3307;52.416;16.862;2023-05-16T00:55:07;8.57;;;7.47;;
6547;SDS011;3307;52.416;16.862;2023-05-16T00:57:34;12.07;;;8.88;;
6547;SDS011;3307;52.416;16.862;2023-05-16T01:00:00;8.30;;;6.83;;
6547;SDS011;3307;52.416;16.862;2023-05-16T01:02:25;8.33;;;6.30;;
6547;SDS011;3307;52.416;16.862;2023-05-16T01:04:53;7.68;;;5.90;;
6547;SDS011;3307;52.416;16.862;2023-05-16T01:07:18;9.27;;;7.03;;
6547;SDS011;3307;52.416;16.862;2023-05-16T01:09:43;7.93;;;6.70;;
6547;SDS011;3307;52.416;16.862;2023-05-16T01:15:17;10.77;;;6.63;;
6547;SDS011;3307;52.416;16.862;2023-05-16T01:18:04;11.43;;;6.70;;
6547;SDS011;3307;52.416;16.862;2023-05-16T01:26:20;8.57;;;6.30;;
6547;SDS011;3307;52.416;16.862;2023-05-16T01:28:50;11.00;;;7.53;;
6547;SDS011;3307;52.416;16.862;2023-05-16T01:31:16;9.05;;;6.97;;
6547;SDS011;3307;52.416;16.862;2023-05-16T01:33:42;8.67;;;7.03;;
6547;SDS011;3307;52.416;16.862;2023-05-16T01:47:11;7.30;;;6.47;;
6547;SDS011;3307;52.416;16.862;2023-05-16T01:49:40;10.07;;;7.10;;
6547;SDS011;3307;52.416;16.862;2023-05-16T01:52:14;8.70;;;6.80;;
6547;SDS011;3307;52.416;16.862;2023-05-16T01:54:44;11.10;;;6.90;;
6547;SDS011;3307;52.416;16.862;2023-05-16T01:57:11;8.63;;;6.90;;
6547;SDS011;3307;52.416;16.862;2023-05-16T01:59:37;8.40;;;7.40;;
6547;SDS011;3307;52.416;16.862;2023-05-16T02:02:03;9.38;;;7.18;;
6547;SDS011;3307;52.416;16.862;2023-05-16T02:04:29;9.57;;;7.67;;
6547;SDS011;3307;52.416;16.862;2023-05-16T02:06:55;10.00;;;6.90;;
6547;SDS011;3307;52.416;16.862;2023-05-16T02:09:21;10.32;;;7.05;;
6547;SDS011;3307;52.416;16.862;2023-05-16T02:11:46;11.00;;;6.90;;
6547;SDS011;3307;52.416;16.862;2023-05-16T02:14:12;10.43;;;6.40;;
6547;SDS011;3307;52.416;16.862;2023-05-16T02:16:37;6.70;;;6.03;;
6547;SDS011;3307;52.416;16.862;2023-05-16T02:19:03;9.73;;;7.22;;
6547;SDS011;3307;52.416;16.862;2023-05-16T02:21:28;7.90;;;5.70;;
6547;SDS011;3307;52.416;16.862;2023-05-16T02:23:53;9.00;;;6.77;;
6547;SDS011;3307;52.416;16.862;2023-05-16T02:26:19;8.73;;;7.37;;
6547;SDS011;3307;52.416;16.862;2023-05-16T02:28:44;8.90;;;6.37;;
6547;SDS011;3307;52.416;16.862;2023-05-16T02:31:10;9.40;;;6.57;;
6547;SDS011;3307;52.416;16.862;2023-05-16T02:33:35;9.70;;;6.90;;
6547;SDS011;3307;52.416;16.862;2023-05-16T02:36:01;8.30;;;6.20;;
6547;SDS011;3307;52.416;16.862;2023-05-16T02:38:26;7.93;;;5.27;;
6547;SDS011;3307;52.416;16.862;2023-05-16T02:40:51;10.27;;;7.67;;
6547;SDS011;3307;52.416;16.862;2023-05-16T02:43:17;8.87;;;6.47;;
6547;SDS011;3307;52.416;16.862;2023-05-16T02:45:43;8.17;;;5.60;;
6547;SDS011;3307;52.416;16.862;2023-05-16T02:48:08;8.43;;;5.77;;
6547;SDS011;3307;52.416;16.862;2023-05-16T02:50:34;9.40;;;6.70;;
6547;SDS011;3307;52.416;16.862;2023-05-16T02:52:59;8.13;;;7.20;;
6547;SDS011;3307;52.416;16.862;2023-05-16T02:55:26;7.57;;;5.45;;
6547;SDS011;3307;52.416;16.862;2023-05-16T02:57:52;7.65;;;5.13;;
6547;SDS011;3307;52.416;16.862;2023-05-16T03:00:18;10.30;;;5.30;;
6547;SDS011;3307;52.416;16.862;2023-05-16T03:02:43;9.53;;;7.07;;
6547;SDS011;3307;52.416;16.862;2023-05-16T03:05:09;10.87;;;6.80;;
6547;SDS011;3307;52.416;16.862;2023-05-16T03:07:35;7.67;;;6.23;;
6547;SDS011;3307;52.416;16.862;2023-05-16T03:10:01;7.93;;;5.78;;
6547;SDS011;3307;52.416;16.862;2023-05-16T03:12:26;9.83;;;7.20;;
6547;SDS011;3307;52.416;16.862;2023-05-16T03:14:52;6.57;;;5.97;;
6547;SDS011;3307;52.416;16.862;2023-05-16T03:17:18;8.75;;;6.28;;
6547;SDS011;3307;52.416;16.862;2023-05-16T03:19:43;7.90;;;6.30;;
6547;SDS011;3307;52.416;16.862;2023-05-16T03:22:09;7.37;;;6.17;;
6547;SDS011;3307;52.416;16.862;2023-05-16T03:24:34;6.47;;;5.80;;
6547;SDS011;3307;52.416;16.862;2023-05-16T03:27:00;9.23;;;5.90;;
6547;SDS011;3307;52.416;16.862;2023-05-16T03:29:25;11.47;;;7.20;;
6547;SDS011;3307;52.416;16.862;2023-05-16T03:31:51;9.20;;;6.93;;
6547;SDS011;3307;52.416;16.862;2023-05-16T03:34:16;7.80;;;6.20;;
6547;SDS011;3307;52.416;16.862;2023-05-16T03:36:42;7.33;;;5.90;;
6547;SDS011;3307;52.416;16.862;2023-05-16T03:39:07;8.43;;;6.97;;
6547;SDS011;3307;52.416;16.862;2023-05-16T03:41:33;7.20;;;5.67;;
6547;SDS011;3307;52.416;16.862;2023-05-16T03:43:59;7.30;;;6.03;;
6547;SDS011;3307;52.416;16.862;2023-05-16T03:46:24;7.30;;;6.30;;
6547;SDS011;3307;52.416;16.862;2023-05-16T03:48:50;8.10;;;6.20;;
6547;SDS011;3307;52.416;16.862;2023-05-16T03:51:15;7.17;;;4.80;;
6547;SDS011;3307;52.416;16.862;2023-05-16T03:53:41;7.60;;;5.03;;
6547;SDS011;3307;52.416;16.862;2023-05-16T03:56:06;7.10;;;6.00;;
6547;SDS011;3307;52.416;16.862;2023-05-16T03:58:32;9.97;;;6.30;;
6547;SDS011;3307;52.416;16.862;2023-05-16T04:00:57;9.00;;;6.53;;
6547;SDS011;3307;52.416;16.862;2023-05-16T04:03:23;10.23;;;6.23;;
6547;SDS011;3307;52.416;16.862;2023-05-16T04:05:52;7.15;;;6.15;;
6547;SDS011;3307;52.416;16.862;2023-05-16T04:08:19;7.68;;;6.38;;
6547;SDS011;3307;52.416;16.862;2023-05-16T04:10:45;6.40;;;5.80;;
6547;SDS011;3307;52.416;16.862;2023-05-16T04:13:10;8.50;;;6.10;;
6547;SDS011;3307;52.416;16.862;2023-05-16T04:15:35;8.47;;;5.60;;
6547;SDS011;3307;52.416;16.862;2023-05-16T04:18:01;11.33;;;6.73;;
6547;SDS011;3307;52.416;16.862;2023-05-16T04:20:27;7.55;;;5.63;;
6547;SDS011;3307;52.416;16.862;2023-05-16T04:22:52;7.17;;;5.63;;
6547;SDS011;3307;52.416;16.862;2023-05-16T04:25:18;8.30;;;5.57;;
6547;SDS011;3307;52.416;16.862;2023-05-16T04:27:43;6.93;;;5.10;;
6547;SDS011;3307;52.416;16.862;2023-05-16T04:30:09;6.33;;;5.37;;
6547;SDS011;3307;52.416;16.862;2023-05-16T04:32:35;7.25;;;6.15;;
6547;SDS011;3307;52.416;16.862;2023-05-16T04:35:01;8.53;;;6.37;;
6547;SDS011;3307;52.416;16.862;2023-05-16T04:37:27;8.85;;;6.72;;
6547;SDS011;3307;52.416;16.862;2023-05-16T04:39:52;8.30;;;6.50;;
6547;SDS011;3307;52.416;16.862;2023-05-16T04:42:18;9.47;;;6.13;;
6547;SDS011;3307;52.416;16.862;2023-05-16T04:44:44;10.40;;;6.87;;
6547;SDS011;3307;52.416;16.862;2023-05-16T04:47:11;8.38;;;6.47;;
6547;SDS011;3307;52.416;16.862;2023-05-16T04:49:37;9.90;;;6.97;;
6547;SDS011;3307;52.416;16.862;2023-05-16T04:52:03;9.97;;;6.07;;
6547;SDS011;3307;52.416;16.862;2023-05-16T04:54:30;6.97;;;5.35;;
6547;SDS011;3307;52.416;16.862;2023-05-16T04:56:55;6.00;;;5.27;;
6547;SDS011;3307;52.416;16.862;2023-05-16T04:59:21;5.40;;;4.90;;
6547;SDS011;3307;52.416;16.862;2023-05-16T05:01:47;6.60;;;5.80;;
6547;SDS011;3307;52.416;16.862;2023-05-16T05:04:12;9.40;;;5.40;;
6547;SDS011;3307;52.416;16.862;2023-05-16T05:06:38;5.30;;;4.80;;
6547;SDS011;3307;52.416;16.862;2023-05-16T05:09:03;6.40;;;5.47;;
6547;SDS011;3307;52.416;16.862;2023-05-16T05:11:30;5.55;;;5.05;;
6547;SDS011;3307;52.416;16.862;2023-05-16T05:13:55;7.90;;;5.60;;
6547;SDS011;3307;52.416;16.862;2023-05-16T05:16:21;7.20;;;5.40;;
6547;SDS011;3307;52.416;16.862;2023-05-16T05:18:46;7.60;;;5.30;;
6547;SDS011;3307;52.416;16.862;2023-05-16T05:21:11;6.73;;;6.03;;
6547;SDS011;3307;52.416;16.862;2023-05-16T05:23:37;5.80;;;4.63;;
6547;SDS011;3307;52.416;16.862;2023-05-16T05:26:02;9.07;;;6.17;;
6547;SDS011;3307;52.416;16.862;2023-05-16T05:28:28;6.37;;;5.43;;
6547;SDS011;3307;52.416;16.862;2023-05-16T05:30:53;5.73;;;4.90;;
6547;SDS011;3307;52.416;16.862;2023-05-16T05:33:19;7.23;;;5.67;;
6547;SDS011;3307;52.416;16.862;2023-05-16T05:35:44;6.43;;;4.97;;
6547;SDS011;3307;52.416;16.862;2023-05-16T05:38:09;6.67;;;5.70;;
6547;SDS011;3307;52.416;16.862;2023-05-16T05:40:35;7.03;;;5.10;;
6547;SDS011;3307;52.416;16.862;2023-05-16T05:43:00;10.30;;;5.77;;
6547;SDS011;3307;52.416;16.862;2023-05-16T05:45:26;6.90;;;5.43;;
6547;SDS011;3307;52.416;16.862;2023-05-16T05:47:51;7.20;;;6.00;;
6547;SDS011;3307;52.416;16.862;2023-05-16T05:50:16;6.93;;;6.10;;
6547;SDS011;3307;52.416;16.862;2023-05-16T05:52:42;9.80;;;6.97;;
6547;SDS011;3307;52.416;16.862;2023-05-16T05:55:07;7.80;;;6.30;;
6547;SDS011;3307;52.416;16.862;2023-05-16T05:57:33;10.90;;;7.77;;
6547;SDS011;3307;52.416;16.862;2023-05-16T05:59:58;7.53;;;6.70;;
6547;SDS011;3307;52.416;16.862;2023-05-16T06:02:24;8.23;;;6.10;;
6547;SDS011;3307;52.416;16.862;2023-05-16T06:04:50;8.25;;;6.32;;
6547;SDS011;3307;52.416;16.862;2023-05-16T06:07:16;7.10;;;6.40;;
6547;SDS011;3307;52.416;16.862;2023-05-16T06:09:42;7.07;;;6.30;;
6547;SDS011;3307;52.416;16.862;2023-05-16T06:12:08;7.80;;;6.00;;
6547;SDS011;3307;52.416;16.862;2023-05-16T06:14:33;7.70;;;6.80;;
6547;SDS011;3307;52.416;16.862;2023-05-16T06:16:58;7.97;;;6.33;;
6547;SDS011;3307;52.416;16.862;2023-05-16T06:19:24;8.60;;;6.53;;
6547;SDS011;3307;52.416;16.862;2023-05-16T06:21:49;9.33;;;6.73;;
6547;SDS011;3307;52.416;16.862;2023-05-16T06:24:15;7.33;;;6.23;;
6547;SDS011;3307;52.416;16.862;2023-05-16T06:26:40;6.73;;;5.33;;
6547;SDS011;3307;52.416;16.862;2023-05-16T06:29:06;8.80;;;7.23;;
6547;SDS011;3307;52.416;16.862;2023-05-16T06:31:31;8.27;;;6.73;;
6547;SDS011;3307;52.416;16.862;2023-05-16T06:33:56;8.17;;;7.07;;
6547;SDS011;3307;52.416;16.862;2023-05-16T06:36:22;8.03;;;7.20;;
6547;SDS011;3307;52.416;16.862;2023-05-16T06:38:48;10.83;;;7.30;;
6547;SDS011;3307;52.416;16.862;2023-05-16T06:41:13;8.52;;;6.70;;
6547;SDS011;3307;52.416;16.862;2023-05-16T06:43:39;7.47;;;6.57;;
6547;SDS011;3307;52.416;16.862;2023-05-16T06:46:05;8.60;;;6.53;;
6547;SDS011;3307;52.416;16.862;2023-05-16T06:48:30;9.47;;;6.30;;
6547;SDS011;3307;52.416;16.862;2023-05-16T06:50:56;6.80;;;5.90;;
6547;SDS011;3307;52.416;16.862;2023-05-16T06:53:21;7.50;;;6.80;;
6547;SDS011;3307;52.416;16.862;2023-05-16T06:55:47;9.10;;;6.90;;
6547;SDS011;3307;52.416;16.862;2023-05-16T06:58:12;10.77;;;6.97;;
6547;SDS011;3307;52.416;16.862;2023-05-16T07:00:38;7.43;;;6.30;;
6547;SDS011;3307;52.416;16.862;2023-05-16T07:03:03;6.23;;;5.63;;
6547;SDS011;3307;52.416;16.862;2023-05-16T07:05:29;7.33;;;5.67;;
6547;SDS011;3307;52.416;16.862;2023-05-16T07:07:55;6.57;;;5.87;;
6547;SDS011;3307;52.416;16.862;2023-05-16T07:10:21;7.50;;;6.63;;
6547;SDS011;3307;52.416;16.862;2023-05-16T07:12:46;6.30;;;5.60;;
6547;SDS011;3307;52.416;16.862;2023-05-16T07:15:12;7.50;;;6.05;;
6547;SDS011;3307;52.416;16.862;2023-05-16T07:17:38;7.00;;;6.00;;
6547;SDS011;3307;52.416;16.862;2023-05-16T07:20:04;6.70;;;5.47;;
6547;SDS011;3307;52.416;16.862;2023-05-16T07:22:30;5.75;;;5.13;;
6547;SDS011;3307;52.416;16.862;2023-05-16T07:24:55;4.70;;;4.30;;
6547;SDS011;3307;52.416;16.862;2023-05-16T07:27:24;5.80;;;5.20;;
6547;SDS011;3307;52.416;16.862;2023-05-16T07:29:50;6.00;;;4.83;;
6547;SDS011;3307;52.416;16.862;2023-05-16T07:32:16;6.13;;;5.40;;
6547;SDS011;3307;52.416;16.862;2023-05-16T07:34:42;5.50;;;3.95;;
6547;SDS011;3307;52.416;16.862;2023-05-16T07:37:07;4.23;;;3.87;;
6547;SDS011;3307;52.416;16.862;2023-05-16T07:39:37;5.00;;;4.53;;
6547;SDS011;3307;52.416;16.862;2023-05-16T07:42:05;4.75;;;4.35;;
6547;SDS011;3307;52.416;16.862;2023-05-16T07:44:31;4.82;;;3.35;;
6547;SDS011;3307;52.416;16.862;2023-05-16T07:46:57;4.33;;;3.50;;
6547;SDS011;3307;52.416;16.862;2023-05-16T07:49:22;3.50;;;3.20;;
6547;SDS011;3307;52.416;16.862;2023-05-16T07:51:47;5.00;;;3.40;;
6547;SDS011;3307;52.416;16.862;2023-05-16T07:54:13;3.90;;;3.50;;
6547;SDS011;3307;52.416;16.862;2023-05-16T07:56:38;4.00;;;2.97;;
6547;SDS011;3307;52.416;16.862;2023-05-16T07:59:04;4.30;;;3.87;;
6547;SDS011;3307;52.416;16.862;2023-05-16T08:01:30;4.47;;;3.80;;
6547;SDS011;3307;52.416;16.862;2023-05-16T08:03:55;4.43;;;4.03;;
6547;SDS011;3307;52.416;16.862;2023-05-16T08:06:20;6.47;;;4.77;;
6547;SDS011;3307;52.416;16.862;2023-05-16T08:08:46;4.60;;;3.87;;
6547;SDS011;3307;52.416;16.862;2023-05-16T08:11:11;4.43;;;4.03;;
6547;SDS011;3307;52.416;16.862;2023-05-16T08:13:37;3.83;;;3.53;;
6547;SDS011;3307;52.416;16.862;2023-05-16T08:16:02;4.90;;;4.50;;
6547;SDS011;3307;52.416;16.862;2023-05-16T08:18:28;5.17;;;4.67;;
6547;SDS011;3307;52.416;16.862;2023-05-16T08:20:53;5.63;;;4.87;;
6547;SDS011;3307;52.416;16.862;2023-05-16T08:23:19;5.53;;;5.00;;
6547;SDS011;3307;52.416;16.862;2023-05-16T08:25:45;5.47;;;5.00;;
6547;SDS011;3307;52.416;16.862;2023-05-16T08:28:10;5.37;;;4.87;;
6547;SDS011;3307;52.416;16.862;2023-05-16T08:30:36;5.37;;;4.67;;
6547;SDS011;3307;52.416;16.862;2023-05-16T08:33:01;5.93;;;5.43;;
6547;SDS011;3307;52.416;16.862;2023-05-16T08:35:29;8.63;;;5.60;;
6547;SDS011;3307;52.416;16.862;2023-05-16T08:37:55;5.57;;;4.87;;
6547;SDS011;3307;52.416;16.862;2023-05-16T08:40:21;6.10;;;5.50;;
6547;SDS011;3307;52.416;16.862;2023-05-16T08:42:51;5.97;;;4.77;;
6547;SDS011;3307;52.416;16.862;2023-05-16T08:45:17;7.60;;;5.00;;
6547;SDS011;3307;52.416;16.862;2023-05-16T08:47:43;6.50;;;5.23;;
6547;SDS011;3307;52.416;16.862;2023-05-16T08:50:09;6.20;;;4.73;;
6547;SDS011;3307;52.416;16.862;2023-05-16T08:52:35;7.03;;;5.33;;
6547;SDS011;3307;52.416;16.862;2023-05-16T08:55:02;5.80;;;5.20;;
6547;SDS011;3307;52.416;16.862;2023-05-16T08:57:33;5.60;;;5.10;;
6547;SDS011;3307;52.416;16.862;2023-05-16T08:59:59;5.83;;;5.23;;
6547;SDS011;3307;52.416;16.862;2023-05-16T09:02:25;5.60;;;4.50;;
6547;SDS011;3307;52.416;16.862;2023-05-16T09:04:52;6.00;;;4.17;;
6547;SDS011;3307;52.416;16.862;2023-05-16T09:07:18;5.00;;;4.40;;
6547;SDS011;3307;52.416;16.862;2023-05-16T09:09:44;5.17;;;4.73;;
6547;SDS011;3307;52.416;16.862;2023-05-16T09:12:09;4.80;;;4.23;;
6547;SDS011;3307;52.416;16.862;2023-05-16T09:14:35;4.40;;;3.97;;
6547;SDS011;3307;52.416;16.862;2023-05-16T09:17:02;4.80;;;4.40;;
6547;SDS011;3307;52.416;16.862;2023-05-16T09:19:38;4.70;;;4.30;;
6547;SDS011;3307;52.416;16.862;2023-05-16T09:22:08;4.90;;;4.50;;
6547;SDS011;3307;52.416;16.862;2023-05-16T09:24:38;3.87;;;3.40;;
6547;SDS011;3307;52.416;16.862;2023-05-16T09:27:10;4.30;;;3.90;;
6547;SDS011;3307;52.416;16.862;2023-05-16T09:29:40;4.57;;;4.13;;
6547;SDS011;3307;52.416;16.862;2023-05-16T09:32:09;7.53;;;4.30;;
6547;SDS011;3307;52.416;16.862;2023-05-16T09:34:46;6.53;;;4.67;;
6547;SDS011;3307;52.416;16.862;2023-05-16T09:37:16;4.90;;;4.40;;
6547;SDS011;3307;52.416;16.862;2023-05-16T09:39:45;3.80;;;3.50;;
6547;SDS011;3307;52.416;16.862;2023-05-16T09:42:12;6.00;;;4.10;;
6547;SDS011;3307;52.416;16.862;2023-05-16T09:44:38;4.23;;;3.83;;
6547;SDS011;3307;52.416;16.862;2023-05-16T09:47:04;4.37;;;3.47;;
6547;SDS011;3307;52.416;16.862;2023-05-16T09:49:29;3.83;;;3.43;;
6547;SDS011;3307;52.416;16.862;2023-05-16T09:51:55;5.10;;;4.60;;
6547;SDS011;3307;52.416;16.862;2023-05-16T09:54:28;5.10;;;4.27;;
6547;SDS011;3307;52.416;16.862;2023-05-16T09:56:57;4.83;;;4.33;;
6547;SDS011;3307;52.416;16.862;2023-05-16T09:59:22;3.80;;;3.50;;
6547;SDS011;3307;52.416;16.862;2023-05-16T10:01:48;4.53;;;3.70;;
6547;SDS011;3307;52.416;16.862;2023-05-16T10:04:15;4.00;;;3.70;;
6547;SDS011;3307;52.416;16.862;2023-05-16T10:06:41;3.90;;;3.50;;
6547;SDS011;3307;52.416;16.862;2023-05-16T10:09:09;3.03;;;2.80;;
6547;SDS011;3307;52.416;16.862;2023-05-16T10:11:35;4.33;;;3.47;;
6547;SDS011;3307;52.416;16.862;2023-05-16T10:14:01;4.40;;;4.00;;
6547;SDS011;3307;52.416;16.862;2023-05-16T10:16:28;4.67;;;4.10;;
6547;SDS011;3307;52.416;16.862;2023-05-16T10:18:53;4.60;;;4.20;;
6547;SDS011;3307;52.416;16.862;2023-05-16T10:21:20;4.23;;;3.90;;
6547;SDS011;3307;52.416;16.862;2023-05-16T10:23:46;4.67;;;4.13;;
6547;SDS011;3307;52.416;16.862;2023-05-16T10:26:13;5.90;;;4.77;;
6547;SDS011;3307;52.416;16.862;2023-05-16T10:28:41;5.47;;;4.93;;
6547;SDS011;3307;52.416;16.862;2023-05-16T10:31:06;5.50;;;5.00;;
6547;SDS011;3307;52.416;16.862;2023-05-16T10:33:32;5.83;;;5.27;;
6547;SDS011;3307;52.416;16.862;2023-05-16T10:36:00;6.97;;;5.67;;
6547;SDS011;3307;52.416;16.862;2023-05-16T10:38:26;5.80;;;5.27;;
6547;SDS011;3307;52.416;16.862;2023-05-16T10:40:52;5.60;;;5.10;;
6547;SDS011;3307;52.416;16.862;2023-05-16T10:43:24;7.00;;;6.17;;
6547;SDS011;3307;52.416;16.862;2023-05-16T10:45:58;6.63;;;5.40;;
6547;SDS011;3307;52.416;16.862;2023-05-16T10:48:28;7.20;;;6.47;;
6547;SDS011;3307;52.416;16.862;2023-05-16T10:50:54;6.53;;;5.93;;
6547;SDS011;3307;52.416;16.862;2023-05-16T10:53:21;6.13;;;5.53;;
6547;SDS011;3307;52.416;16.862;2023-05-16T11:11:42;7.50;;;6.80;;
6547;SDS011;3307;52.416;16.862;2023-05-16T11:16:51;7.30;;;6.10;;
6547;SDS011;3307;52.416;16.862;2023-05-16T11:19:47;5.83;;;5.17;;
6547;SDS011;3307;52.416;16.862;2023-05-16T11:27:44;6.30;;;5.70;;
6547;SDS011;3307;52.416;16.862;2023-05-16T11:30:14;7.80;;;5.63;;
6547;SDS011;3307;52.416;16.862;2023-05-16T11:32:42;6.50;;;5.53;;
6547;SDS011;3307;52.416;16.862;2023-05-16T11:35:09;5.43;;;4.93;;
6547;SDS011;3307;52.416;16.862;2023-05-16T11:37:36;6.53;;;5.60;;
6547;SDS011;3307;52.416;16.862;2023-05-16T11:40:03;6.00;;;5.40;;
6547;SDS011;3307;52.416;16.862;2023-05-16T11:42:42;7.00;;;5.87;;
6547;SDS011;3307;52.416;16.862;2023-05-16T11:45:18;5.43;;;4.87;;
6547;SDS011;3307;52.416;16.862;2023-05-16T11:47:49;5.03;;;4.53;;
6547;SDS011;3307;52.416;16.862;2023-05-16T11:50:21;6.90;;;6.00;;
6547;SDS011;3307;52.416;16.862;2023-05-16T11:52:51;4.60;;;4.20;;
6547;SDS011;3307;52.416;16.862;2023-05-16T11:55:18;6.10;;;5.53;;
6547;SDS011;3307;52.416;16.862;2023-05-16T11:57:45;6.73;;;5.93;;
6547;SDS011;3307;52.416;16.862;2023-05-16T12:02:41;7.50;;;6.50;;
6547;SDS011;3307;52.416;16.862;2023-05-16T12:05:07;8.23;;;7.43;;
6547;SDS011;3307;52.416;16.862;2023-05-16T12:07:33;7.93;;;6.80;;
6547;SDS011;3307;52.416;16.862;2023-05-16T12:10:03;9.70;;;6.70;;
6547;SDS011;3307;52.416;16.862;2023-05-16T12:12:32;8.23;;;6.73;;
6547;SDS011;3307;52.416;16.862;2023-05-16T12:14:57;8.33;;;7.30;;
6547;SDS011;3307;52.416;16.862;2023-05-16T12:17:23;7.40;;;6.40;;
6547;SDS011;3307;52.416;16.862;2023-05-16T12:19:49;8.17;;;7.37;;
6547;SDS011;3307;52.416;16.862;2023-05-16T12:22:15;9.33;;;7.37;;
6547;SDS011;3307;52.416;16.862;2023-05-16T12:24:42;7.60;;;6.73;;
6547;SDS011;3307;52.416;16.862;2023-05-16T12:27:08;11.03;;;9.30;;
6547;SDS011;3307;52.416;16.862;2023-05-16T12:29:33;7.47;;;6.20;;
6547;SDS011;3307;52.416;16.862;2023-05-16T12:31:59;8.03;;;7.00;;
6547;SDS011;3307;52.416;16.862;2023-05-16T12:34:27;7.90;;;7.07;;
6547;SDS011;3307;52.416;16.862;2023-05-16T12:36:53;9.07;;;7.20;;
6547;SDS011;3307;52.416;16.862;2023-05-16T12:39:19;8.60;;;7.20;;
6547;SDS011;3307;52.416;16.862;2023-05-16T12:41:45;11.07;;;8.10;;
6547;SDS011;3307;52.416;16.862;2023-05-16T12:44:11;8.63;;;7.13;;
6547;SDS011;3307;52.416;16.862;2023-05-16T12:46:50;7.47;;;6.63;;
6547;SDS011;3307;52.416;16.862;2023-05-16T12:49:20;8.03;;;7.10;;
6547;SDS011;3307;52.416;16.862;2023-05-16T12:51:50;9.47;;;7.80;;
6547;SDS011;3307;52.416;16.862;2023-05-16T12:54:16;8.90;;;7.87;;
6547;SDS011;3307;52.416;16.862;2023-05-16T12:56:42;8.50;;;7.17;;
6547;SDS011;3307;52.416;16.862;2023-05-16T12:59:08;10.27;;;8.83;;
6547;SDS011;3307;52.416;16.862;2023-05-16T13:01:35;7.50;;;6.73;;
6547;SDS011;3307;52.416;16.862;2023-05-16T13:04:01;9.00;;;7.20;;
6547;SDS011;3307;52.416;16.862;2023-05-16T13:06:26;8.90;;;7.57;;
6547;SDS011;3307;52.416;16.862;2023-05-16T13:08:52;9.60;;;7.23;;
6547;SDS011;3307;52.416;16.862;2023-05-16T13:11:18;8.27;;;7.43;;
6547;SDS011;3307;52.416;16.862;2023-05-16T13:13:43;9.57;;;8.30;;
6547;SDS011;3307;52.416;16.862;2023-05-16T13:16:09;12.90;;;9.10;;
6547;SDS011;3307;52.416;16.862;2023-05-16T13:18:34;13.33;;;9.73;;
6547;SDS011;3307;52.416;16.862;2023-05-16T13:21:01;11.67;;;7.93;;
6547;SDS011;3307;52.416;16.862;2023-05-16T13:23:28;9.80;;;8.03;;
6547;SDS011;3307;52.416;16.862;2023-05-16T13:25:54;9.33;;;6.93;;
6547;SDS011;3307;52.416;16.862;2023-05-16T13:28:19;6.80;;;6.13;;
6547;SDS011;3307;52.416;16.862;2023-05-16T13:30:45;8.27;;;6.90;;
6547;SDS011;3307;52.416;16.862;2023-05-16T13:33:10;10.50;;;7.30;;
6547;SDS011;3307;52.416;16.862;2023-05-16T13:35:36;7.70;;;6.97;;
6547;SDS011;3307;52.416;16.862;2023-05-16T13:38:02;7.93;;;7.13;;
6547;SDS011;3307;52.416;16.862;2023-05-16T13:40:28;8.03;;;7.07;;
6547;SDS011;3307;52.416;16.862;2023-05-16T13:42:53;8.50;;;6.87;;
6547;SDS011;3307;52.416;16.862;2023-05-16T13:45:19;8.87;;;7.50;;
6547;SDS011;3307;52.416;16.862;2023-05-16T13:47:45;11.70;;;8.03;;
6547;SDS011;3307;52.416;16.862;2023-05-16T13:50:10;11.27;;;8.10;;
6547;SDS011;3307;52.416;16.862;2023-05-16T13:52:36;7.93;;;7.23;;
6547;SDS011;3307;52.416;16.862;2023-05-16T13:55:02;9.07;;;8.03;;
6547;SDS011;3307;52.416;16.862;2023-05-16T13:57:28;10.60;;;8.80;;
6547;SDS011;3307;52.416;16.862;2023-05-16T13:59:53;16.57;;;10.50;;
6547;SDS011;3307;52.416;16.862;2023-05-16T14:02:19;14.67;;;10.13;;
6547;SDS011;3307;52.416;16.862;2023-05-16T14:04:44;10.13;;;8.37;;
6547;SDS011;3307;52.416;16.862;2023-05-16T14:07:10;15.23;;;9.00;;
6547;SDS011;3307;52.416;16.862;2023-05-16T14:09:35;13.70;;;8.27;;
6547;SDS011;3307;52.416;16.862;2023-05-16T14:12:04;12.07;;;9.33;;
6547;SDS011;3307;52.416;16.862;2023-05-16T14:14:31;11.10;;;7.50;;
6547;SDS011;3307;52.416;16.862;2023-05-16T14:16:57;11.27;;;8.97;;
6547;SDS011;3307;52.416;16.862;2023-05-16T14:19:23;9.90;;;8.13;;
6547;SDS011;3307;52.416;16.862;2023-05-16T14:21:49;11.00;;;7.37;;
6547;SDS011;3307;52.416;16.862;2023-05-16T14:24:14;10.40;;;8.30;;
6547;SDS011;3307;52.416;16.862;2023-05-16T14:26:40;13.03;;;8.57;;
6547;SDS011;3307;52.416;16.862;2023-05-16T14:29:05;12.40;;;9.33;;
6547;SDS011;3307;52.416;16.862;2023-05-16T14:31:31;15.20;;;8.60;;
6547;SDS011;3307;52.416;16.862;2023-05-16T14:33:56;10.90;;;8.17;;
6547;SDS011;3307;52.416;16.862;2023-05-16T14:36:23;11.33;;;9.27;;
6547;SDS011;3307;52.416;16.862;2023-05-16T14:38:48;14.50;;;10.70;;
6547;SDS011;3307;52.416;16.862;2023-05-16T14:41:14;9.10;;;7.90;;
6547;SDS011;3307;52.416;16.862;2023-05-16T14:43:40;9.60;;;7.00;;
6547;SDS011;3307;52.416;16.862;2023-05-16T14:46:05;7.47;;;6.40;;
6547;SDS011;3307;52.416;16.862;2023-05-16T14:48:31;9.60;;;6.90;;
6547;SDS011;3307;52.416;16.862;2023-05-16T14:50:57;7.70;;;5.80;;
6547;SDS011;3307;52.416;16.862;2023-05-16T14:53:23;9.60;;;5.13;;
6547;SDS011;3307;52.416;16.862;2023-05-16T14:55:48;6.50;;;4.90;;
6547;SDS011;3307;52.416;16.862;2023-05-16T14:58:14;7.40;;;5.27;;
6547;SDS011;3307;52.416;16.862;2023-05-16T15:00:39;7.20;;;4.97;;
6547;SDS011;3307;52.416;16.862;2023-05-16T15:03:05;7.27;;;5.20;;
6547;SDS011;3307;52.416;16.862;2023-05-16T15:05:30;5.40;;;4.77;;
6547;SDS011;3307;52.416;16.862;2023-05-16T15:07:56;7.10;;;4.53;;
6547;SDS011;3307;52.416;16.862;2023-05-16T15:10:21;9.27;;;6.93;;
6547;SDS011;3307;52.416;16.862;2023-05-16T15:12:47;6.60;;;5.07;;
6547;SDS011;3307;52.416;16.862;2023-05-16T15:15:12;11.47;;;5.87;;
6547;SDS011;3307;52.416;16.862;2023-05-16T15:17:39;8.50;;;4.93;;
6547;SDS011;3307;52.416;16.862;2023-05-16T15:20:07;7.32;;;5.05;;
6547;SDS011;3307;52.416;16.862;2023-05-16T15:22:37;9.93;;;5.90;;
6547;SDS011;3307;52.416;16.862;2023-05-16T15:25:03;8.07;;;5.50;;
6547;SDS011;3307;52.416;16.862;2023-05-16T15:27:30;8.43;;;6.50;;
6547;SDS011;3307;52.416;16.862;2023-05-16T15:29:55;10.60;;;5.78;;
6547;SDS011;3307;52.416;16.862;2023-05-16T15:32:21;9.90;;;6.73;;
6547;SDS011;3307;52.416;16.862;2023-05-16T15:34:47;10.10;;;7.00;;
6547;SDS011;3307;52.416;16.862;2023-05-16T15:37:13;10.77;;;7.10;;
6547;SDS011;3307;52.416;16.862;2023-05-16T15:39:39;12.20;;;9.20;;